sensor_id;sensor_type;location;lat;lon;timestamp;temperature;humidity
1135;DHT22;556;53.550;10.048;2022-07-19T00:01:54;23.30;42.40
1135;DHT22;556;53.550;10.048;2022-07-19T00:04:21;23.20;42.40
1135;DHT22;556;53.550;10.048;2022-07-19T00:06:48;23.20;42.90
1135;DHT22;556;53.550;10.048;2022-07-19T00:09:17;23.20;42.60
1135;DHT22;556;53.550;10.048;2022-07-19T00:11:44;23.20;42.80
1135;DHT22;556;53.550;10.048;2022-07-19T00:14:11;23.10;42.70
1135;DHT22;556;53.550;10.048;2022-07-19T00:16:38;23.10;42.80
1135;DHT22;556;53.550;10.048;2022-07-19T00:19:05;23.10;43.40
1135;DHT22;556;53.550;10.048;2022-07-19T00:21:35;23.00;42.90
1135;DHT22;556;53.550;10.048;2022-07-19T00:24:02;23.00;43.40
1135;DHT22;556;53.550;10.048;2022-07-19T00:26:30;22.90;43.00
1135;DHT22;556;53.550;10.048;2022-07-19T00:28:58;22.90;43.20
1135;DHT22;556;53.550;10.048;2022-07-19T00:31:26;22.90;43.30
1135;DHT22;556;53.550;10.048;2022-07-19T00:33:53;22.80;43.20
1135;DHT22;556;53.550;10.048;2022-07-19T00:36:21;22.80;43.30
1135;DHT22;556;53.550;10.048;2022-07-19T00:38:48;22.80;43.50
1135;DHT22;556;53.550;10.048;2022-07-19T00:41:15;22.80;43.60
1135;DHT22;556;53.550;10.048;2022-07-19T00:43:43;22.70;43.60
1135;DHT22;556;53.550;10.048;2022-07-19T00:46:13;22.60;43.70
1135;DHT22;556;53.550;10.048;2022-07-19T00:48:41;22.60;43.70
1135;DHT22;556;53.550;10.048;2022-07-19T00:51:09;22.60;43.90
1135;DHT22;556;53.550;10.048;2022-07-19T00:53:36;22.60;44.00
1135;DHT22;556;53.550;10.048;2022-07-19T00:56:05;22.50;43.90
1135;DHT22;556;53.550;10.048;2022-07-19T00:58:34;22.50;44.10
1135;DHT22;556;53.550;10.048;2022-07-19T01:01:04;22.40;44.10
1135;DHT22;556;53.550;10.048;2022-07-19T01:03:35;22.40;44.20
1135;DHT22;556;53.550;10.048;2022-07-19T01:06:02;22.30;44.20
1135;DHT22;556;53.550;10.048;2022-07-19T01:08:30;22.30;44.30
1135;DHT22;556;53.550;10.048;2022-07-19T01:10:57;22.20;44.30
1135;DHT22;556;53.550;10.048;2022-07-19T01:13:25;22.20;44.40
1135;DHT22;556;53.550;10.048;2022-07-19T01:15:52;22.20;44.50
1135;DHT22;556;53.550;10.048;2022-07-19T01:18:21;22.10;44.60
1135;DHT22;556;53.550;10.048;2022-07-19T01:20:48;22.10;44.70
1135;DHT22;556;53.550;10.048;2022-07-19T01:23:16;22.10;44.80
1135;DHT22;556;53.550;10.048;2022-07-19T01:25:43;22.00;44.70
1135;DHT22;556;53.550;10.048;2022-07-19T01:28:11;22.00;44.90
1135;DHT22;556;53.550;10.048;2022-07-19T01:30:38;22.00;44.90
1135;DHT22;556;53.550;10.048;2022-07-19T01:33:05;21.90;45.00
1135;DHT22;556;53.550;10.048;2022-07-19T01:35:32;21.90;45.10
1135;DHT22;556;53.550;10.048;2022-07-19T01:38:01;21.90;45.30
1135;DHT22;556;53.550;10.048;2022-07-19T01:40:30;21.80;45.60
1135;DHT22;556;53.550;10.048;2022-07-19T01:43:00;21.80;45.40
1135;DHT22;556;53.550;10.048;2022-07-19T01:45:28;21.70;45.30
1135;DHT22;556;53.550;10.048;2022-07-19T01:47:56;21.70;45.40
1135;DHT22;556;53.550;10.048;2022-07-19T01:50:23;21.60;45.40
1135;DHT22;556;53.550;10.048;2022-07-19T01:52:51;21.60;45.50
1135;DHT22;556;53.550;10.048;2022-07-19T01:55:19;21.50;45.50
1135;DHT22;556;53.550;10.048;2022-07-19T01:57:49;21.60;45.70
1135;DHT22;556;53.550;10.048;2022-07-19T02:00:17;21.50;45.70
1135;DHT22;556;53.550;10.048;2022-07-19T02:02:45;21.40;45.60
1135;DHT22;556;53.550;10.048;2022-07-19T02:05:12;21.40;45.70
1135;DHT22;556;53.550;10.048;2022-07-19T02:07:39;21.40;45.70
1135;DHT22;556;53.550;10.048;2022-07-19T02:10:07;21.40;45.90
1135;DHT22;556;53.550;10.048;2022-07-19T02:12:35;21.40;45.80
1135;DHT22;556;53.550;10.048;2022-07-19T02:15:05;21.30;45.90
1135;DHT22;556;53.550;10.048;2022-07-19T02:17:32;21.30;46.00
1135;DHT22;556;53.550;10.048;2022-07-19T02:19:59;21.30;46.10
1135;DHT22;556;53.550;10.048;2022-07-19T02:22:27;21.30;46.10
1135;DHT22;556;53.550;10.048;2022-07-19T02:24:54;21.20;46.60
1135;DHT22;556;53.550;10.048;2022-07-19T02:27:21;21.20;46.20
1135;DHT22;556;53.550;10.048;2022-07-19T02:29:48;21.20;46.30
1135;DHT22;556;53.550;10.048;2022-07-19T02:32:17;21.20;46.30
1135;DHT22;556;53.550;10.048;2022-07-19T02:34:44;21.10;46.30
1135;DHT22;556;53.550;10.048;2022-07-19T02:37:11;21.10;46.40
1135;DHT22;556;53.550;10.048;2022-07-19T02:39:38;21.00;46.50
1135;DHT22;556;53.550;10.048;2022-07-19T02:42:05;21.10;46.70
1135;DHT22;556;53.550;10.048;2022-07-19T02:44:32;21.00;46.90
1135;DHT22;556;53.550;10.048;2022-07-19T02:46:59;21.00;46.60
1135;DHT22;556;53.550;10.048;2022-07-19T02:49:28;21.00;46.80
1135;DHT22;556;53.550;10.048;2022-07-19T02:51:55;20.90;46.70
1135;DHT22;556;53.550;10.048;2022-07-19T02:54:22;20.90;46.80
1135;DHT22;556;53.550;10.048;2022-07-19T02:56:50;20.90;46.80
1135;DHT22;556;53.550;10.048;2022-07-19T02:59:17;20.90;46.90
1135;DHT22;556;53.550;10.048;2022-07-19T03:01:44;20.90;47.00
1135;DHT22;556;53.550;10.048;2022-07-19T03:04:11;20.80;47.00
1135;DHT22;556;53.550;10.048;2022-07-19T03:06:40;20.80;47.00
1135;DHT22;556;53.550;10.048;2022-07-19T03:09:07;20.80;47.00
1135;DHT22;556;53.550;10.048;2022-07-19T03:11:34;20.80;47.00
1135;DHT22;556;53.550;10.048;2022-07-19T03:14:01;20.80;47.20
1135;DHT22;556;53.550;10.048;2022-07-19T03:16:28;20.80;47.20
1135;DHT22;556;53.550;10.048;2022-07-19T03:21:23;20.80;47.20
1135;DHT22;556;53.550;10.048;2022-07-19T03:23:51;20.80;47.20
1135;DHT22;556;53.550;10.048;2022-07-19T03:28:46;20.80;47.20
1135;DHT22;556;53.550;10.048;2022-07-19T03:31:13;20.80;47.30
1135;DHT22;556;53.550;10.048;2022-07-19T03:33:40;20.80;47.40
1135;DHT22;556;53.550;10.048;2022-07-19T03:38:35;20.80;47.30
1135;DHT22;556;53.550;10.048;2022-07-19T03:41:03;20.90;47.30
1135;DHT22;556;53.550;10.048;2022-07-19T03:43:31;20.90;47.40
1135;DHT22;556;53.550;10.048;2022-07-19T03:45:58;20.90;47.40
1135;DHT22;556;53.550;10.048;2022-07-19T03:48:25;20.90;47.90
1135;DHT22;556;53.550;10.048;2022-07-19T03:50:52;20.90;47.50
1135;DHT22;556;53.550;10.048;2022-07-19T03:53:19;20.90;47.90
1135;DHT22;556;53.550;10.048;2022-07-19T03:55:46;21.00;47.50
1135;DHT22;556;53.550;10.048;2022-07-19T03:58:15;21.00;47.90
1135;DHT22;556;53.550;10.048;2022-07-19T04:00:42;21.10;47.60
1135;DHT22;556;53.550;10.048;2022-07-19T04:03:11;21.10;47.60
1135;DHT22;556;53.550;10.048;2022-07-19T04:05:38;21.20;48.10
1135;DHT22;556;53.550;10.048;2022-07-19T04:08:05;21.20;47.60
1135;DHT22;556;53.550;10.048;2022-07-19T04:10:32;21.20;47.60
1135;DHT22;556;53.550;10.048;2022-07-19T04:13:00;21.30;47.50
1135;DHT22;556;53.550;10.048;2022-07-19T04:15:29;21.40;47.50
1135;DHT22;556;53.550;10.048;2022-07-19T04:17:56;21.40;47.60
1135;DHT22;556;53.550;10.048;2022-07-19T04:20:23;21.40;47.60
1135;DHT22;556;53.550;10.048;2022-07-19T04:22:51;21.50;47.50
1135;DHT22;556;53.550;10.048;2022-07-19T04:25:18;21.60;47.50
1135;DHT22;556;53.550;10.048;2022-07-19T04:27:45;21.60;47.50
1135;DHT22;556;53.550;10.048;2022-07-19T04:30:13;21.70;48.00
1135;DHT22;556;53.550;10.048;2022-07-19T04:32:41;21.80;47.50
1135;DHT22;556;53.550;10.048;2022-07-19T04:35:08;21.80;47.50
1135;DHT22;556;53.550;10.048;2022-07-19T04:37:35;21.80;47.50
1135;DHT22;556;53.550;10.048;2022-07-19T04:40:04;21.90;47.50
1135;DHT22;556;53.550;10.048;2022-07-19T04:42:32;22.00;47.50
1135;DHT22;556;53.550;10.048;2022-07-19T04:44:59;22.00;47.80
1135;DHT22;556;53.550;10.048;2022-07-19T04:47:26;22.10;47.40
1135;DHT22;556;53.550;10.048;2022-07-19T04:49:54;22.20;47.30
1135;DHT22;556;53.550;10.048;2022-07-19T04:52:22;22.30;47.30
1135;DHT22;556;53.550;10.048;2022-07-19T04:54:49;22.30;47.70
1135;DHT22;556;53.550;10.048;2022-07-19T04:57:16;22.40;47.70
1135;DHT22;556;53.550;10.048;2022-07-19T04:59:43;22.50;47.20
1135;DHT22;556;53.550;10.048;2022-07-19T05:02:10;22.60;47.20
1135;DHT22;556;53.550;10.048;2022-07-19T05:04:37;22.60;47.30
1135;DHT22;556;53.550;10.048;2022-07-19T05:07:05;22.70;47.30
1135;DHT22;556;53.550;10.048;2022-07-19T05:09:32;22.70;47.70
1135;DHT22;556;53.550;10.048;2022-07-19T05:12:00;22.80;47.20
1135;DHT22;556;53.550;10.048;2022-07-19T05:14:31;22.90;47.20
1135;DHT22;556;53.550;10.048;2022-07-19T05:16:58;22.90;47.20
1135;DHT22;556;53.550;10.048;2022-07-19T05:19:25;23.00;47.10
1135;DHT22;556;53.550;10.048;2022-07-19T05:21:53;23.10;47.00
1135;DHT22;556;53.550;10.048;2022-07-19T05:26:49;23.20;46.90
1135;DHT22;556;53.550;10.048;2022-07-19T05:29:16;23.30;46.90
1135;DHT22;556;53.550;10.048;2022-07-19T05:31:43;23.40;47.00
1135;DHT22;556;53.550;10.048;2022-07-19T05:34:10;23.50;46.90
1135;DHT22;556;53.550;10.048;2022-07-19T05:36:38;23.60;46.90
1135;DHT22;556;53.550;10.048;2022-07-19T05:39:05;23.70;46.80
1135;DHT22;556;53.550;10.048;2022-07-19T05:41:34;23.70;46.70
1135;DHT22;556;53.550;10.048;2022-07-19T05:44:01;23.80;47.20
1135;DHT22;556;53.550;10.048;2022-07-19T05:46:28;23.90;47.20
1135;DHT22;556;53.550;10.048;2022-07-19T05:48:55;24.00;46.60
1135;DHT22;556;53.550;10.048;2022-07-19T05:51:22;24.10;47.00
1135;DHT22;556;53.550;10.048;2022-07-19T05:53:49;24.20;46.50
1135;DHT22;556;53.550;10.048;2022-07-19T05:56:16;24.20;46.90
1135;DHT22;556;53.550;10.048;2022-07-19T05:58:45;24.30;46.80
1135;DHT22;556;53.550;10.048;2022-07-19T06:01:12;24.50;46.30
1135;DHT22;556;53.550;10.048;2022-07-19T06:03:45;24.60;46.20
1135;DHT22;556;53.550;10.048;2022-07-19T06:06:13;24.70;46.00
1135;DHT22;556;53.550;10.048;2022-07-19T06:08:42;24.80;46.00
1135;DHT22;556;53.550;10.048;2022-07-19T06:11:09;24.80;46.40
1135;DHT22;556;53.550;10.048;2022-07-19T06:13:36;24.90;46.40
1135;DHT22;556;53.550;10.048;2022-07-19T06:16:08;24.90;46.20
1135;DHT22;556;53.550;10.048;2022-07-19T06:18:36;25.00;45.70
1135;DHT22;556;53.550;10.048;2022-07-19T06:21:06;25.10;46.10
1135;DHT22;556;53.550;10.048;2022-07-19T06:23:34;25.20;46.00
1135;DHT22;556;53.550;10.048;2022-07-19T06:26:01;25.30;45.80
1135;DHT22;556;53.550;10.048;2022-07-19T06:28:28;25.40;45.30
1135;DHT22;556;53.550;10.048;2022-07-19T06:30:55;25.50;45.00
1135;DHT22;556;53.550;10.048;2022-07-19T06:33:24;25.60;45.00
1135;DHT22;556;53.550;10.048;2022-07-19T06:35:51;25.60;44.90
1135;DHT22;556;53.550;10.048;2022-07-19T06:38:19;25.70;44.80
1135;DHT22;556;53.550;10.048;2022-07-19T06:40:46;25.80;44.70
1135;DHT22;556;53.550;10.048;2022-07-19T06:43:13;25.80;44.50
1135;DHT22;556;53.550;10.048;2022-07-19T06:45:40;25.90;44.40
1135;DHT22;556;53.550;10.048;2022-07-19T06:48:07;26.00;44.90
1135;DHT22;556;53.550;10.048;2022-07-19T06:50:36;26.00;44.80
1135;DHT22;556;53.550;10.048;2022-07-19T06:53:03;26.20;44.10
1135;DHT22;556;53.550;10.048;2022-07-19T06:55:30;26.20;43.90
1135;DHT22;556;53.550;10.048;2022-07-19T06:57:57;26.30;43.80
1135;DHT22;556;53.550;10.048;2022-07-19T07:00:24;26.30;43.60
1135;DHT22;556;53.550;10.048;2022-07-19T07:02:51;26.40;44.10
1135;DHT22;556;53.550;10.048;2022-07-19T07:05:18;26.50;43.90
1135;DHT22;556;53.550;10.048;2022-07-19T07:07:47;26.70;43.10
1135;DHT22;556;53.550;10.048;2022-07-19T07:10:17;26.70;43.50
1135;DHT22;556;53.550;10.048;2022-07-19T07:12:44;26.90;42.90
1135;DHT22;556;53.550;10.048;2022-07-19T07:15:12;27.00;42.60
1135;DHT22;556;53.550;10.048;2022-07-19T07:17:39;27.00;42.50
1135;DHT22;556;53.550;10.048;2022-07-19T07:20:07;27.20;42.40
1135;DHT22;556;53.550;10.048;2022-07-19T07:22:35;27.40;42.20
1135;DHT22;556;53.550;10.048;2022-07-19T07:25:05;27.40;42.50
1135;DHT22;556;53.550;10.048;2022-07-19T07:27:32;27.50;42.50
1135;DHT22;556;53.550;10.048;2022-07-19T07:29:59;27.60;42.40
1135;DHT22;556;53.550;10.048;2022-07-19T07:32:27;27.60;42.30
1135;DHT22;556;53.550;10.048;2022-07-19T07:34:54;27.70;41.70
1135;DHT22;556;53.550;10.048;2022-07-19T07:39:49;27.90;41.50
1135;DHT22;556;53.550;10.048;2022-07-19T07:42:17;28.10;41.10
1135;DHT22;556;53.550;10.048;2022-07-19T07:44:44;28.20;41.00
1135;DHT22;556;53.550;10.048;2022-07-19T07:47:11;28.20;40.80
1135;DHT22;556;53.550;10.048;2022-07-19T07:49:39;28.30;41.30
1135;DHT22;556;53.550;10.048;2022-07-19T07:52:06;28.40;41.10
1135;DHT22;556;53.550;10.048;2022-07-19T07:54:34;28.60;40.30
1135;DHT22;556;53.550;10.048;2022-07-19T07:57:01;28.60;40.80
1135;DHT22;556;53.550;10.048;2022-07-19T07:59:30;28.70;40.00
1135;DHT22;556;53.550;10.048;2022-07-19T08:01:57;28.80;39.90
1135;DHT22;556;53.550;10.048;2022-07-19T08:04:24;28.90;39.80
1135;DHT22;556;53.550;10.048;2022-07-19T08:06:51;29.00;40.30
1135;DHT22;556;53.550;10.048;2022-07-19T08:09:18;29.00;40.20
1135;DHT22;556;53.550;10.048;2022-07-19T08:11:45;29.10;39.60
1135;DHT22;556;53.550;10.048;2022-07-19T08:14:13;29.10;40.00
1135;DHT22;556;53.550;10.048;2022-07-19T08:16:41;29.30;39.40
1135;DHT22;556;53.550;10.048;2022-07-19T08:19:08;29.40;39.20
1135;DHT22;556;53.550;10.048;2022-07-19T08:21:35;29.60;39.10
1135;DHT22;556;53.550;10.048;2022-07-19T08:24:03;29.60;38.90
1135;DHT22;556;53.550;10.048;2022-07-19T08:26:30;29.70;38.80
1135;DHT22;556;53.550;10.048;2022-07-19T08:28:57;29.90;38.60
1135;DHT22;556;53.550;10.048;2022-07-19T08:31:24;30.00;38.40
1135;DHT22;556;53.550;10.048;2022-07-19T08:33:52;30.00;38.20
1135;DHT22;556;53.550;10.048;2022-07-19T08:36:20;30.10;38.10
1135;DHT22;556;53.550;10.048;2022-07-19T08:38:47;30.30;38.10
1135;DHT22;556;53.550;10.048;2022-07-19T08:41:14;30.30;37.90
1135;DHT22;556;53.550;10.048;2022-07-19T08:43:42;30.20;37.80
1135;DHT22;556;53.550;10.048;2022-07-19T08:46:09;30.30;38.40
1135;DHT22;556;53.550;10.048;2022-07-19T08:48:37;30.30;37.70
1135;DHT22;556;53.550;10.048;2022-07-19T08:51:07;30.30;37.50
1135;DHT22;556;53.550;10.048;2022-07-19T08:53:34;30.40;37.40
1135;DHT22;556;53.550;10.048;2022-07-19T08:56:04;30.50;37.30
1135;DHT22;556;53.550;10.048;2022-07-19T08:58:52;30.60;36.90
1135;DHT22;556;53.550;10.048;2022-07-19T09:01:18;30.60;36.60
1135;DHT22;556;53.550;10.048;2022-07-19T09:04:04;30.70;36.20
1135;DHT22;556;53.550;10.048;2022-07-19T09:06:37;30.70;36.20
1135;DHT22;556;53.550;10.048;2022-07-19T09:09:05;30.80;36.60
1135;DHT22;556;53.550;10.048;2022-07-19T09:11:33;30.80;35.80
1135;DHT22;556;53.550;10.048;2022-07-19T09:14:05;30.90;35.60
1135;DHT22;556;53.550;10.048;2022-07-19T09:16:52;30.90;35.40
1135;DHT22;556;53.550;10.048;2022-07-19T09:19:20;31.00;35.20
1135;DHT22;556;53.550;10.048;2022-07-19T09:21:54;31.10;35.70
1135;DHT22;556;53.550;10.048;2022-07-19T09:24:23;31.10;35.50
1135;DHT22;556;53.550;10.048;2022-07-19T09:26:55;31.30;34.80
1135;DHT22;556;53.550;10.048;2022-07-19T09:29:22;31.40;34.60
1135;DHT22;556;53.550;10.048;2022-07-19T09:32:00;31.50;34.40
1135;DHT22;556;53.550;10.048;2022-07-19T09:34:29;31.60;34.70
1135;DHT22;556;53.550;10.048;2022-07-19T09:37:18;31.60;34.10
1135;DHT22;556;53.550;10.048;2022-07-19T09:39:47;31.70;34.00
1135;DHT22;556;53.550;10.048;2022-07-19T09:42:16;31.70;34.40
1135;DHT22;556;53.550;10.048;2022-07-19T09:44:44;31.80;34.20
1135;DHT22;556;53.550;10.048;2022-07-19T09:47:11;31.90;33.90
1135;DHT22;556;53.550;10.048;2022-07-19T09:49:39;31.90;33.70
1135;DHT22;556;53.550;10.048;2022-07-19T09:52:07;31.90;33.50
1135;DHT22;556;53.550;10.048;2022-07-19T09:54:38;32.00;32.80
1135;DHT22;556;53.550;10.048;2022-07-19T09:57:07;31.90;32.80
1135;DHT22;556;53.550;10.048;2022-07-19T09:59:35;32.00;32.70
1135;DHT22;556;53.550;10.048;2022-07-19T10:02:03;32.00;32.70
1135;DHT22;556;53.550;10.048;2022-07-19T10:04:32;32.10;32.70
1135;DHT22;556;53.550;10.048;2022-07-19T10:07:01;32.20;32.60
1135;DHT22;556;53.550;10.048;2022-07-19T10:09:29;32.30;32.60
1135;DHT22;556;53.550;10.048;2022-07-19T10:11:57;32.40;32.50
1135;DHT22;556;53.550;10.048;2022-07-19T10:14:25;32.50;32.40
1135;DHT22;556;53.550;10.048;2022-07-19T10:17:01;32.50;32.20
1135;DHT22;556;53.550;10.048;2022-07-19T10:19:37;32.50;32.10
1135;DHT22;556;53.550;10.048;2022-07-19T10:22:08;32.70;32.00
1135;DHT22;556;53.550;10.048;2022-07-19T10:24:48;32.70;32.40
1135;DHT22;556;53.550;10.048;2022-07-19T10:27:18;33.00;31.40
1135;DHT22;556;53.550;10.048;2022-07-19T10:30:19;33.00;31.90
1135;DHT22;556;53.550;10.048;2022-07-19T10:32:55;33.10;31.70
1135;DHT22;556;53.550;10.048;2022-07-19T10:35:28;33.20;31.50
1135;DHT22;556;53.550;10.048;2022-07-19T10:38:07;33.30;30.80
1135;DHT22;556;53.550;10.048;2022-07-19T10:40:39;33.40;31.20
1135;DHT22;556;53.550;10.048;2022-07-19T10:43:10;33.50;30.60
1135;DHT22;556;53.550;10.048;2022-07-19T10:45:38;33.50;30.90
1135;DHT22;556;53.550;10.048;2022-07-19T10:48:08;33.50;30.60
1135;DHT22;556;53.550;10.048;2022-07-19T10:50:53;33.50;30.40
1135;DHT22;556;53.550;10.048;2022-07-19T10:54:03;33.60;30.30
1135;DHT22;556;53.550;10.048;2022-07-19T10:56:43;33.70;30.00
1135;DHT22;556;53.550;10.048;2022-07-19T10:59:38;33.80;30.00
1135;DHT22;556;53.550;10.048;2022-07-19T11:02:06;33.80;29.70
1135;DHT22;556;53.550;10.048;2022-07-19T11:04:34;33.90;29.80
1135;DHT22;556;53.550;10.048;2022-07-19T11:07:21;34.00;29.20
1135;DHT22;556;53.550;10.048;2022-07-19T11:09:52;34.20;29.00
1135;DHT22;556;53.550;10.048;2022-07-19T11:12:31;34.20;29.20
1135;DHT22;556;53.550;10.048;2022-07-19T11:15:03;34.30;28.80
1135;DHT22;556;53.550;10.048;2022-07-19T11:17:30;34.40;28.10
1135;DHT22;556;53.550;10.048;2022-07-19T11:20:04;34.40;28.40
1135;DHT22;556;53.550;10.048;2022-07-19T11:22:38;34.50;28.10
1135;DHT22;556;53.550;10.048;2022-07-19T11:25:07;34.60;27.40
1135;DHT22;556;53.550;10.048;2022-07-19T11:27:35;34.60;27.10
1135;DHT22;556;53.550;10.048;2022-07-19T11:30:05;34.70;27.50
1135;DHT22;556;53.550;10.048;2022-07-19T11:32:34;34.80;27.40
1135;DHT22;556;53.550;10.048;2022-07-19T11:35:03;34.90;27.40
1135;DHT22;556;53.550;10.048;2022-07-19T11:37:33;34.90;27.30
1135;DHT22;556;53.550;10.048;2022-07-19T11:40:00;34.90;27.30
1135;DHT22;556;53.550;10.048;2022-07-19T11:42:32;35.00;27.40
1135;DHT22;556;53.550;10.048;2022-07-19T11:45:12;35.00;27.40
1135;DHT22;556;53.550;10.048;2022-07-19T11:47:46;35.10;26.90
1135;DHT22;556;53.550;10.048;2022-07-19T11:50:15;35.20;27.00
1135;DHT22;556;53.550;10.048;2022-07-19T11:52:49;35.20;27.30
1135;DHT22;556;53.550;10.048;2022-07-19T11:55:18;35.30;27.00
1135;DHT22;556;53.550;10.048;2022-07-19T11:57:46;35.40;27.00
1135;DHT22;556;53.550;10.048;2022-07-19T12:00:17;35.40;27.30
1135;DHT22;556;53.550;10.048;2022-07-19T12:02:56;35.60;27.30
1135;DHT22;556;53.550;10.048;2022-07-19T12:05:25;35.70;27.30
1135;DHT22;556;53.550;10.048;2022-07-19T12:07:53;35.80;27.30
1135;DHT22;556;53.550;10.048;2022-07-19T12:10:40;35.80;26.70
1135;DHT22;556;53.550;10.048;2022-07-19T12:13:09;35.90;26.70
1135;DHT22;556;53.550;10.048;2022-07-19T12:15:52;35.90;26.60
1135;DHT22;556;53.550;10.048;2022-07-19T12:18:21;36.00;27.00
1135;DHT22;556;53.550;10.048;2022-07-19T12:21:15;36.20;26.30
1135;DHT22;556;53.550;10.048;2022-07-19T12:23:43;36.30;26.40
1135;DHT22;556;53.550;10.048;2022-07-19T12:26:30;36.30;26.20
1135;DHT22;556;53.550;10.048;2022-07-19T12:28:57;36.40;25.90
1135;DHT22;556;53.550;10.048;2022-07-19T12:31:25;36.30;25.80
1135;DHT22;556;53.550;10.048;2022-07-19T12:33:58;36.40;25.80
1135;DHT22;556;53.550;10.048;2022-07-19T12:36:32;36.50;25.70
1135;DHT22;556;53.550;10.048;2022-07-19T12:38:59;36.60;25.60
1135;DHT22;556;53.550;10.048;2022-07-19T12:41:26;36.90;25.50
1135;DHT22;556;53.550;10.048;2022-07-19T12:43:53;37.00;25.80
1135;DHT22;556;53.550;10.048;2022-07-19T12:48:49;38.60;25.10
1135;DHT22;556;53.550;10.048;2022-07-19T12:51:16;39.10;24.80
1135;DHT22;556;53.550;10.048;2022-07-19T12:53:43;39.80;25.10
1135;DHT22;556;53.550;10.048;2022-07-19T12:56:10;41.60;24.20
1135;DHT22;556;53.550;10.048;2022-07-19T12:58:37;41.90;23.70
1135;DHT22;556;53.550;10.048;2022-07-19T13:01:22;42.70;24.10
1135;DHT22;556;53.550;10.048;2022-07-19T13:03:50;43.90;23.20
1135;DHT22;556;53.550;10.048;2022-07-19T13:06:18;44.60;22.80
1135;DHT22;556;53.550;10.048;2022-07-19T13:08:45;45.70;22.40
1135;DHT22;556;53.550;10.048;2022-07-19T13:11:12;46.40;22.00
1135;DHT22;556;53.550;10.048;2022-07-19T13:13:39;47.00;21.70
1135;DHT22;556;53.550;10.048;2022-07-19T13:16:06;47.80;21.40
1135;DHT22;556;53.550;10.048;2022-07-19T13:18:34;48.20;21.20
1135;DHT22;556;53.550;10.048;2022-07-19T13:21:03;48.70;20.80
1135;DHT22;556;53.550;10.048;2022-07-19T13:23:30;49.30;20.60
1135;DHT22;556;53.550;10.048;2022-07-19T13:25:57;49.50;20.30
1135;DHT22;556;53.550;10.048;2022-07-19T13:28:24;49.70;20.20
1135;DHT22;556;53.550;10.048;2022-07-19T13:30:51;50.30;20.00
1135;DHT22;556;53.550;10.048;2022-07-19T13:33:18;51.20;19.80
1135;DHT22;556;53.550;10.048;2022-07-19T13:35:45;51.40;19.50
1135;DHT22;556;53.550;10.048;2022-07-19T13:38:14;51.60;19.20
1135;DHT22;556;53.550;10.048;2022-07-19T13:40:41;51.80;19.00
1135;DHT22;556;53.550;10.048;2022-07-19T13:43:08;51.90;19.20
1135;DHT22;556;53.550;10.048;2022-07-19T13:45:36;52.30;18.70
1135;DHT22;556;53.550;10.048;2022-07-19T13:48:03;52.30;18.20
1135;DHT22;556;53.550;10.048;2022-07-19T13:50:31;52.50;18.30
1135;DHT22;556;53.550;10.048;2022-07-19T13:52:59;52.50;18.00
1135;DHT22;556;53.550;10.048;2022-07-19T13:55:28;52.80;17.90
1135;DHT22;556;53.550;10.048;2022-07-19T13:57:56;52.70;17.70
1135;DHT22;556;53.550;10.048;2022-07-19T14:00:23;52.10;17.90
1135;DHT22;556;53.550;10.048;2022-07-19T14:02:50;52.20;17.70
1135;DHT22;556;53.550;10.048;2022-07-19T14:05:17;52.50;17.50
1135;DHT22;556;53.550;10.048;2022-07-19T14:07:45;52.50;17.40
1135;DHT22;556;53.550;10.048;2022-07-19T14:10:12;52.50;17.30
1135;DHT22;556;53.550;10.048;2022-07-19T14:12:40;52.50;17.20
1135;DHT22;556;53.550;10.048;2022-07-19T14:15:08;52.40;17.60
1135;DHT22;556;53.550;10.048;2022-07-19T14:17:35;52.20;17.10
1135;DHT22;556;53.550;10.048;2022-07-19T14:20:04;52.30;17.50
1135;DHT22;556;53.550;10.048;2022-07-19T14:22:31;52.50;17.40
1135;DHT22;556;53.550;10.048;2022-07-19T14:24:59;52.90;17.30
1135;DHT22;556;53.550;10.048;2022-07-19T14:27:26;53.00;17.10
1135;DHT22;556;53.550;10.048;2022-07-19T14:29:54;53.10;16.90
1135;DHT22;556;53.550;10.048;2022-07-19T14:32:24;52.80;16.50
1135;DHT22;556;53.550;10.048;2022-07-19T14:34:51;52.70;16.80
1135;DHT22;556;53.550;10.048;2022-07-19T14:37:18;52.30;16.80
1135;DHT22;556;53.550;10.048;2022-07-19T14:39:45;52.20;16.80
1135;DHT22;556;53.550;10.048;2022-07-19T14:42:12;52.40;16.80
1135;DHT22;556;53.550;10.048;2022-07-19T14:44:40;52.40;16.70
1135;DHT22;556;53.550;10.048;2022-07-19T14:47:08;52.60;16.60
1135;DHT22;556;53.550;10.048;2022-07-19T14:49:35;52.90;16.10
1135;DHT22;556;53.550;10.048;2022-07-19T14:52:03;52.90;16.50
1135;DHT22;556;53.550;10.048;2022-07-19T14:54:31;53.50;16.00
1135;DHT22;556;53.550;10.048;2022-07-19T14:56:58;53.50;16.30
1135;DHT22;556;53.550;10.048;2022-07-19T14:59:26;53.10;15.80
1135;DHT22;556;53.550;10.048;2022-07-19T15:01:53;52.90;15.60
1135;DHT22;556;53.550;10.048;2022-07-19T15:04:21;52.30;15.70
1135;DHT22;556;53.550;10.048;2022-07-19T15:09:16;52.30;15.70
1135;DHT22;556;53.550;10.048;2022-07-19T15:11:43;52.20;15.70
1135;DHT22;556;53.550;10.048;2022-07-19T15:14:12;52.20;15.80
1135;DHT22;556;53.550;10.048;2022-07-19T15:16:40;52.30;15.60
1135;DHT22;556;53.550;10.048;2022-07-19T15:19:07;52.20;15.60
1135;DHT22;556;53.550;10.048;2022-07-19T15:21:36;52.30;15.70
1135;DHT22;556;53.550;10.048;2022-07-19T15:24:04;52.30;15.60
1135;DHT22;556;53.550;10.048;2022-07-19T15:26:31;52.30;15.60
1135;DHT22;556;53.550;10.048;2022-07-19T15:28:58;52.30;15.50
1135;DHT22;556;53.550;10.048;2022-07-19T15:31:25;52.50;15.40
1135;DHT22;556;53.550;10.048;2022-07-19T15:33:53;52.80;15.40
1135;DHT22;556;53.550;10.048;2022-07-19T15:36:20;52.90;15.70
1135;DHT22;556;53.550;10.048;2022-07-19T15:38:48;53.00;15.10
1135;DHT22;556;53.550;10.048;2022-07-19T15:41:15;52.90;15.60
1135;DHT22;556;53.550;10.048;2022-07-19T15:43:42;52.50;15.10
1135;DHT22;556;53.550;10.048;2022-07-19T15:46:10;52.40;15.20
1135;DHT22;556;53.550;10.048;2022-07-19T15:48:37;52.50;15.10
1135;DHT22;556;53.550;10.048;2022-07-19T15:51:05;52.40;15.10
1135;DHT22;556;53.550;10.048;2022-07-19T15:53:34;52.40;15.10
1135;DHT22;556;53.550;10.048;2022-07-19T15:56:03;52.50;15.00
1135;DHT22;556;53.550;10.048;2022-07-19T15:58:30;52.60;15.00
1135;DHT22;556;53.550;10.048;2022-07-19T16:00:58;52.80;15.00
1135;DHT22;556;53.550;10.048;2022-07-19T16:03:25;52.90;14.80
1135;DHT22;556;53.550;10.048;2022-07-19T16:05:53;53.30;14.80
1135;DHT22;556;53.550;10.048;2022-07-19T16:08:20;53.00;14.70
1135;DHT22;556;53.550;10.048;2022-07-19T16:10:47;52.80;14.80
1135;DHT22;556;53.550;10.048;2022-07-19T16:13:15;52.70;14.70
1135;DHT22;556;53.550;10.048;2022-07-19T16:15:42;52.60;15.00
1135;DHT22;556;53.550;10.048;2022-07-19T16:18:10;52.70;15.50
1135;DHT22;556;53.550;10.048;2022-07-19T16:20:37;52.70;14.70
1135;DHT22;556;53.550;10.048;2022-07-19T16:23:04;52.70;14.50
1135;DHT22;556;53.550;10.048;2022-07-19T16:25:31;52.80;14.60
1135;DHT22;556;53.550;10.048;2022-07-19T16:27:58;53.30;14.50
1135;DHT22;556;53.550;10.048;2022-07-19T16:30:28;53.40;14.80